Terminal Aerodrome Forecast
Issued by NWS

Current Version | Previous Version | Text Only | Print | Product List | Glossary Off
Versions: 1 2 3 4 5 6 7 8 9 10 11 12 13 14 15 16 17 18 19 20 21 22 23 24 25 26 27

000
FTUS41 KPBZ 040138 AAB
TAFHLG
TAF AMD
KHLG 040138Z 0402/0424 VRB03KT 4SM BR SCT050
     FM040900 00000KT 1SM BR SCT250
     FM041400 10003KT P6SM SCT040=

USA.gov is the U.S. government's official web portal to all federal, state and local government web resources and services.